Time,TemperatureF,DewpointF,PressureIn,WindDirection,WindDirectionDegrees,WindSpeedMPH,WindSpeedGustMPH,Humidity,HourlyPrecipIn,Conditions,Clouds,dailyrainin,SoftwareType,DateUTC
2013-07-30 00:06:00,53.4,49.3,30.10,NNE,22,0.0,0.0,86,0.00,,,0.00,WUHU21623XXSP,2013-07-30 04:06:00,
2013-07-30 00:11:00,53.4,49.3,30.10,NNE,22,0.0,0.0,86,0.00,,,0.00,WUHU21623XXSP,2013-07-30 04:11:00,
2013-07-30 00:16:00,53.4,49.3,30.09,NNE,22,0.0,0.0,86,0.00,,,0.00,WUHU21623XXSP,2013-07-30 04:16:00,
2013-07-30 00:21:00,53.4,49.3,30.10,NNE,22,0.0,0.0,86,0.00,,,0.00,WUHU21623XXSP,2013-07-30 04:21:00,
2013-07-30 00:26:00,53.2,49.1,30.09,NNE,22,0.0,0.0,86,0.00,,,0.00,WUHU21623XXSP,2013-07-30 04:26:00,
2013-07-30 00:31:00,53.2,49.1,30.09,NNE,22,0.0,0.0,86,0.00,,,0.00,WUHU21623XXSP,2013-07-30 04:31:00,
2013-07-30 00:37:00,53.2,49.1,30.09,NNE,22,0.0,0.0,86,0.00,,,0.00,WUHU21623XXSP,2013-07-30 04:37:00,
2013-07-30 00:42:00,53.2,49.1,30.09,NNE,22,0.0,0.0,86,0.00,,,0.00,WUHU21623XXSP,2013-07-30 04:42:00,
2013-07-30 00:47:00,53.2,49.1,30.10,NNE,22,0.0,0.0,86,0.00,,,0.00,WUHU21623XXSP,2013-07-30 04:47:00,
2013-07-30 00:52:00,53.2,49.4,30.10,NNE,22,0.0,0.0,87,0.00,,,0.00,WUHU21623XXSP,2013-07-30 04:52:00,
2013-07-30 00:57:00,52.9,48.8,30.10,NNE,22,0.0,0.0,86,0.00,,,0.00,WUHU21623XXSP,2013-07-30 04:57:00,
2013-07-30 01:02:00,52.9,48.8,30.10,NNE,22,0.0,0.0,86,0.00,,,0.00,WUHU21623XXSP,2013-07-30 05:02:00,
2013-07-30 01:07:00,52.2,48.1,30.10,NNE,22,0.0,0.0,86,0.00,,,0.00,WUHU21623XXSP,2013-07-30 05:07:00,
2013-07-30 01:12:00,52.0,48.2,30.11,NNE,22,0.0,0.0,87,0.00,,,0.00,WUHU21623XXSP,2013-07-30 05:12:00,
2013-07-30 01:17:00,52.3,48.2,30.10,NNE,22,0.0,0.0,86,0.00,,,0.00,WUHU21623XXSP,2013-07-30 05:17:00,
2013-07-30 01:22:00,52.3,48.2,30.10,NNE,22,0.0,0.0,86,0.00,,,0.00,WUHU21623XXSP,2013-07-30 05:22:00,
2013-07-30 01:27:00,52.0,47.9,30.10,NNE,22,0.0,0.0,86,0.00,,,0.00,WUHU21623XXSP,2013-07-30 05:27:00,
2013-07-30 01:32:00,52.0,48.2,30.10,NNE,22,0.0,0.0,87,0.00,,,0.00,WUHU21623XXSP,2013-07-30 05:32:00,
2013-07-30 01:37:00,51.8,48.0,30.10,NNE,22,0.0,0.0,87,0.00,,,0.00,WUHU21623XXSP,2013-07-30 05:37:00,
2013-07-30 01:42:00,52.0,48.2,30.10,NNE,22,0.0,0.0,87,0.00,,,0.00,WUHU21623XXSP,2013-07-30 05:42:00,
2013-07-30 01:47:00,52.0,48.2,30.10,NNE,22,0.0,0.0,87,0.00,,,0.00,WUHU21623XXSP,2013-07-30 05:47:00,
2013-07-30 01:52:00,52.0,48.2,30.10,NNE,22,0.0,0.0,87,0.00,,,0.00,WUHU21623XXSP,2013-07-30 05:52:00,
2013-07-30 01:57:00,51.8,48.0,30.10,NNE,22,0.0,0.0,87,0.00,,,0.00,WUHU21623XXSP,2013-07-30 05:57:00,
2013-07-30 02:02:00,51.8,48.0,30.10,NNE,22,0.0,0.0,87,0.00,,,0.00,WUHU21623XXSP,2013-07-30 06:02:00,
2013-07-30 02:07:00,51.6,47.8,30.10,NNE,22,0.0,0.0,87,0.00,,,0.00,WUHU21623XXSP,2013-07-30 06:07:00,
2013-07-30 02:13:00,51.6,47.8,30.10,NNE,22,0.0,0.0,87,0.00,,,0.00,WUHU21623XXSP,2013-07-30 06:13:00,
2013-07-30 02:18:00,51.6,47.8,30.10,NNE,22,0.0,0.0,87,0.00,,,0.00,WUHU21623XXSP,2013-07-30 06:18:00,
2013-07-30 02:23:00,51.6,47.8,30.10,NNE,22,0.0,0.0,87,0.00,,,0.00,WUHU21623XXSP,2013-07-30 06:23:00,
2013-07-30 02:28:00,51.6,47.8,30.10,NNE,22,0.0,0.0,87,0.00,,,0.00,WUHU21623XXSP,2013-07-30 06:28:00,
2013-07-30 02:33:00,51.6,47.8,30.10,NNE,22,0.0,0.0,87,0.00,,,0.00,WUHU21623XXSP,2013-07-30 06:33:00,
2013-07-30 02:38:00,51.6,47.8,30.10,NNE,22,0.0,0.0,87,0.00,,,0.00,WUHU21623XXSP,2013-07-30 06:38:00,
2013-07-30 02:43:00,52.3,48.5,30.10,NNE,22,0.0,0.0,87,0.00,,,0.00,WUHU21623XXSP,2013-07-30 06:43:00,
2013-07-30 02:48:00,53.1,49.3,30.10,NNE,22,0.0,0.0,87,0.00,,,0.00,WUHU21623XXSP,2013-07-30 06:48:00,
2013-07-30 02:53:00,53.2,49.4,30.10,NNE,22,0.0,0.0,87,0.00,,,0.00,WUHU21623XXSP,2013-07-30 06:53:00,
2013-07-30 02:58:00,53.4,49.6,30.10,NNE,22,0.0,0.0,87,0.00,,,0.00,WUHU21623XXSP,2013-07-30 06:58:00,
2013-07-30 03:03:00,53.8,50.0,30.10,NNE,22,0.0,0.0,87,0.00,,,0.00,WUHU21623XXSP,2013-07-30 07:03:00,
2013-07-30 03:08:00,53.8,50.0,30.10,NNE,22,0.0,0.0,87,0.00,,,0.00,WUHU21623XXSP,2013-07-30 07:08:00,
2013-07-30 03:13:00,53.8,50.0,30.10,NNE,22,0.0,0.0,87,0.00,,,0.00,WUHU21623XXSP,2013-07-30 07:13:00,
2013-07-30 03:18:00,53.8,50.0,30.10,NNE,22,0.0,0.0,87,0.00,,,0.00,WUHU21623XXSP,2013-07-30 07:18:00,
2013-07-30 03:23:00,53.6,49.8,30.09,NNE,22,0.0,0.0,87,0.00,,,0.00,WUHU21623XXSP,2013-07-30 07:23:00,
2013-07-30 03:28:00,53.6,49.8,30.09,NNE,22,0.0,0.0,87,0.00,,,0.00,WUHU21623XXSP,2013-07-30 07:28:00,
2013-07-30 03:33:00,53.8,50.0,30.09,NNE,22,0.0,0.0,87,0.00,,,0.00,WUHU21623XXSP,2013-07-30 07:33:00,
2013-07-30 03:38:00,53.4,49.6,30.09,NNE,22,0.0,0.0,87,0.00,,,0.00,WUHU21623XXSP,2013-07-30 07:38:00,
2013-07-30 03:43:00,53.8,50.0,30.09,NNE,22,0.0,0.0,87,0.00,,,0.00,WUHU21623XXSP,2013-07-30 07:43:00,
2013-07-30 03:48:00,54.0,50.1,30.09,NNE,22,0.0,0.0,87,0.00,,,0.00,WUHU21623XXSP,2013-07-30 07:48:00,
2013-07-30 03:53:00,54.1,50.3,30.09,NNE,22,0.0,0.0,87,0.00,,,0.00,WUHU21623XXSP,2013-07-30 07:53:00,
2013-07-30 03:58:00,54.3,50.5,30.09,NNE,22,0.0,0.0,87,0.00,,,0.00,WUHU21623XXSP,2013-07-30 07:58:00,
2013-07-30 04:03:00,54.5,50.7,30.09,NNE,22,0.0,0.0,87,0.00,,,0.00,WUHU21623XXSP,2013-07-30 08:03:00,
2013-07-30 04:08:00,54.3,50.5,30.09,NNE,22,0.0,0.0,87,0.00,,,0.00,WUHU21623XXSP,2013-07-30 08:08:00,
2013-07-30 04:13:00,54.3,50.5,30.09,NNE,22,0.0,0.0,87,0.00,,,0.00,WUHU21623XXSP,2013-07-30 08:13:00,
2013-07-30 04:18:00,54.5,50.7,30.10,NNE,22,0.0,0.0,87,0.00,,,0.00,WUHU21623XXSP,2013-07-30 08:18:00,
2013-07-30 04:23:00,54.5,50.7,30.10,NNE,22,0.0,0.0,87,0.00,,,0.00,WUHU21623XXSP,2013-07-30 08:23:00,
2013-07-30 04:28:00,54.7,50.8,30.11,NNE,22,0.0,0.0,87,0.00,,,0.00,WUHU21623XXSP,2013-07-30 08:28:00,
2013-07-30 04:33:00,55.2,51.7,30.11,NNE,22,0.0,0.0,88,0.00,,,0.00,WUHU21623XXSP,2013-07-30 08:33:00,
2013-07-30 04:38:00,55.2,51.7,30.10,NNE,22,0.0,0.0,88,0.00,,,0.00,WUHU21623XXSP,2013-07-30 08:38:00,
2013-07-30 04:43:00,55.9,52.1,30.10,NNE,22,0.0,0.0,87,0.00,,,0.00,WUHU21623XXSP,2013-07-30 08:43:00,
2013-07-30 04:48:00,56.1,52.3,30.11,NNE,22,0.0,0.0,87,0.00,,,0.00,WUHU21623XXSP,2013-07-30 08:48:00,
2013-07-30 04:53:00,56.5,52.6,30.11,NNE,22,0.0,0.0,87,0.00,,,0.00,WUHU21623XXSP,2013-07-30 08:53:00,
2013-07-30 04:58:00,56.7,52.8,30.10,NNE,22,0.0,0.0,87,0.00,,,0.00,WUHU21623XXSP,2013-07-30 08:58:00,
2013-07-30 05:03:00,56.8,53.0,30.10,NNE,22,0.0,0.0,87,0.00,,,0.00,WUHU21623XXSP,2013-07-30 09:03:00,
2013-07-30 05:08:00,57.0,53.2,30.11,NNE,22,0.0,0.0,87,0.00,,,0.00,WUHU21623XXSP,2013-07-30 09:08:00,
2013-07-30 05:13:00,57.0,53.2,30.11,NNE,22,0.0,0.0,87,0.00,,,0.00,WUHU21623XXSP,2013-07-30 09:13:00,
2013-07-30 05:18:00,57.0,53.2,30.11,NNE,22,0.0,0.0,87,0.00,,,0.00,WUHU21623XXSP,2013-07-30 09:18:00,
2013-07-30 05:23:00,57.0,53.2,30.10,NNE,22,0.0,0.0,87,0.00,,,0.00,WUHU21623XXSP,2013-07-30 09:23:00,
2013-07-30 05:28:00,57.4,53.5,30.10,NNE,22,0.0,0.0,87,0.00,,,0.00,WUHU21623XXSP,2013-07-30 09:28:00,
2013-07-30 05:33:00,57.4,53.5,30.10,NNE,22,0.0,0.0,87,0.00,,,0.00,WUHU21623XXSP,2013-07-30 09:33:00,
2013-07-30 05:38:00,57.4,53.5,30.10,NNE,22,0.0,0.0,87,0.00,,,0.00,WUHU21623XXSP,2013-07-30 09:38:00,
2013-07-30 05:43:00,57.4,53.5,30.10,NNE,22,0.0,0.0,87,0.00,,,0.00,WUHU21623XXSP,2013-07-30 09:43:00,
2013-07-30 05:48:00,57.4,53.5,30.10,NNE,22,0.0,0.0,87,0.00,,,0.00,WUHU21623XXSP,2013-07-30 09:48:00,
2013-07-30 05:53:00,57.4,53.5,30.10,NNE,22,0.0,0.0,87,0.00,,,0.00,WUHU21623XXSP,2013-07-30 09:53:00,
2013-07-30 05:58:00,57.4,53.5,30.11,NNE,22,0.0,0.0,87,0.00,,,0.00,WUHU21623XXSP,2013-07-30 09:58:00,
2013-07-30 06:03:00,57.6,53.7,30.11,NNE,22,0.0,0.0,87,0.00,,,0.00,WUHU21623XXSP,2013-07-30 10:03:00,
2013-07-30 06:08:00,57.6,53.7,30.11,NNE,22,0.0,0.0,87,0.00,,,0.00,WUHU21623XXSP,2013-07-30 10:08:00,
2013-07-30 06:13:00,57.7,53.9,30.11,NNE,22,0.0,0.0,87,0.00,,,0.00,WUHU21623XXSP,2013-07-30 10:13:00,
2013-07-30 06:18:00,57.7,53.9,30.11,NNE,22,0.0,0.0,87,0.00,,,0.00,WUHU21623XXSP,2013-07-30 10:18:00,
2013-07-30 06:23:00,57.7,53.9,30.11,NNE,22,0.0,0.0,87,0.00,,,0.00,WUHU21623XXSP,2013-07-30 10:23:00,
2013-07-30 06:28:00,57.7,53.9,30.11,NNE,22,0.0,0.0,87,0.00,,,0.00,WUHU21623XXSP,2013-07-30 10:28:00,
2013-07-30 06:33:00,57.9,54.1,30.11,NNE,22,0.0,0.0,87,0.00,,,0.00,WUHU21623XXSP,2013-07-30 10:33:00,
2013-07-30 06:38:00,57.9,54.1,30.11,NNE,22,0.0,0.0,87,0.00,,,0.00,WUHU21623XXSP,2013-07-30 10:38:00,
2013-07-30 06:43:00,58.1,54.2,30.12,NNE,22,0.0,0.0,87,0.00,,,0.00,WUHU21623XXSP,2013-07-30 10:43:00,
2013-07-30 06:48:00,58.3,54.4,30.11,NNE,22,0.0,0.0,87,0.00,,,0.00,WUHU21623XXSP,2013-07-30 10:48:00,
2013-07-30 06:53:00,58.1,54.2,30.12,NNE,22,0.0,0.0,87,0.00,,,0.00,WUHU21623XXSP,2013-07-30 10:53:00,
2013-07-30 06:58:00,58.3,54.4,30.12,NNE,22,0.0,0.0,87,0.00,,,0.00,WUHU21623XXSP,2013-07-30 10:58:00,
2013-07-30 07:03:00,58.3,54.4,30.12,NNE,22,0.0,0.0,87,0.00,,,0.00,WUHU21623XXSP,2013-07-30 11:03:00,
2013-07-30 07:08:00,58.5,54.6,30.12,NNE,22,0.0,0.0,87,0.00,,,0.00,WUHU21623XXSP,2013-07-30 11:08:00,
2013-07-30 07:13:00,58.6,54.8,30.12,NNE,22,0.0,0.0,87,0.00,,,0.00,WUHU21623XXSP,2013-07-30 11:13:00,
2013-07-30 07:18:00,58.6,54.8,30.12,NNE,22,0.0,0.0,87,0.00,,,0.00,WUHU21623XXSP,2013-07-30 11:18:00,
2013-07-30 07:23:00,58.8,55.0,30.12,NNE,22,0.0,0.0,87,0.00,,,0.00,WUHU21623XXSP,2013-07-30 11:23:00,
2013-07-30 07:28:00,58.8,55.0,30.13,NNE,22,0.0,0.0,87,0.00,,,0.00,WUHU21623XXSP,2013-07-30 11:28:00,
2013-07-30 07:33:00,58.8,55.0,30.13,NNE,22,0.0,0.0,87,0.00,,,0.00,WUHU21623XXSP,2013-07-30 11:33:00,
2013-07-30 07:38:00,59.2,55.3,30.13,NNE,22,0.0,0.0,87,0.00,,,0.00,WUHU21623XXSP,2013-07-30 11:38:00,
2013-07-30 07:43:00,59.7,55.9,30.13,NNE,22,0.0,0.0,87,0.00,,,0.00,WUHU21623XXSP,2013-07-30 11:43:00,
2013-07-30 07:48:00,60.1,56.2,30.14,NNE,22,0.0,0.0,87,0.00,,,0.00,WUHU21623XXSP,2013-07-30 11:48:00,
2013-07-30 07:53:00,60.4,56.6,30.14,NNE,22,0.0,0.0,87,0.00,,,0.00,WUHU21623XXSP,2013-07-30 11:53:00,
2013-07-30 07:58:00,60.4,56.6,30.14,NNE,22,0.0,0.0,87,0.00,,,0.00,WUHU21623XXSP,2013-07-30 11:58:00,
2013-07-30 08:03:00,60.4,56.3,30.14,NNE,22,0.0,0.0,86,0.00,,,0.00,WUHU21623XXSP,2013-07-30 12:03:00,
2013-07-30 08:08:00,60.1,55.9,30.14,NNE,22,0.0,0.0,86,0.00,,,0.00,WUHU21623XXSP,2013-07-30 12:08:00,
2013-07-30 08:13:00,60.4,56.3,30.14,NNE,22,0.0,0.0,86,0.00,,,0.00,WUHU21623XXSP,2013-07-30 12:13:00,
2013-07-30 08:18:00,60.4,56.3,30.14,NNE,22,0.0,0.0,86,0.00,,,0.00,WUHU21623XXSP,2013-07-30 12:18:00,
2013-07-30 08:23:00,60.6,56.4,30.14,NNE,22,0.0,0.0,86,0.00,,,0.00,WUHU21623XXSP,2013-07-30 12:23:00,
2013-07-30 08:28:00,61.3,57.1,30.14,NNE,22,0.0,0.0,86,0.00,,,0.00,WUHU21623XXSP,2013-07-30 12:28:00,
2013-07-30 08:33:00,62.2,58.0,30.14,NNE,22,0.0,0.0,86,0.00,,,0.00,WUHU21623XXSP,2013-07-30 12:33:00,
2013-07-30 08:38:00,62.4,57.8,30.14,NNE,22,0.0,0.0,85,0.00,,,0.00,WUHU21623XXSP,2013-07-30 12:38:00,
2013-07-30 08:43:00,62.1,57.5,30.15,NNE,22,0.0,0.0,85,0.00,,,0.00,WUHU21623XXSP,2013-07-30 12:43:00,
2013-07-30 08:48:00,61.7,57.1,30.15,NNE,22,0.0,0.0,85,0.00,,,0.00,WUHU21623XXSP,2013-07-30 12:48:00,
2013-07-30 08:53:00,61.5,57.0,30.15,NNE,22,0.0,0.0,85,0.00,,,0.00,WUHU21623XXSP,2013-07-30 12:53:00,
2013-07-30 08:58:00,61.5,57.3,30.15,NNE,22,0.0,0.0,86,0.00,,,0.00,WUHU21623XXSP,2013-07-30 12:58:00,
2013-07-30 09:03:00,61.9,57.7,30.15,NNE,22,0.0,0.0,86,0.00,,,0.00,WUHU21623XXSP,2013-07-30 13:03:00,
2013-07-30 09:08:00,62.1,57.5,30.16,NNE,22,0.0,0.0,85,0.00,,,0.00,WUHU21623XXSP,2013-07-30 13:08:00,
2013-07-30 09:13:00,62.2,57.7,30.16,NNE,22,0.0,0.0,85,0.00,,,0.00,WUHU21623XXSP,2013-07-30 13:13:00,
2013-07-30 09:18:00,62.4,57.8,30.15,NNE,22,0.0,0.0,85,0.00,,,0.00,WUHU21623XXSP,2013-07-30 13:18:00,
2013-07-30 09:23:00,62.8,58.2,30.16,NNE,22,0.0,0.0,85,0.00,,,0.00,WUHU21623XXSP,2013-07-30 13:23:00,
2013-07-30 09:28:00,63.1,58.5,30.16,NNE,22,0.0,0.0,85,0.00,,,0.00,WUHU21623XXSP,2013-07-30 13:28:00,
2013-07-30 09:33:00,63.5,58.9,30.16,NNE,22,0.0,0.0,85,0.00,,,0.00,WUHU21623XXSP,2013-07-30 13:33:00,
2013-07-30 09:38:00,64.2,59.6,30.16,NNE,22,0.0,0.0,85,0.00,,,0.00,WUHU21623XXSP,2013-07-30 13:38:00,
2013-07-30 09:43:00,65.3,60.3,30.16,NNE,22,0.0,0.0,84,0.00,,,0.00,WUHU21623XXSP,2013-07-30 13:43:00,
2013-07-30 09:48:00,66.0,60.7,30.16,NNE,22,0.0,0.2,83,0.00,,,0.00,WUHU21623XXSP,2013-07-30 13:48:00,
2013-07-30 09:53:00,66.6,60.9,30.16,NNE,22,0.0,0.2,82,0.00,,,0.00,WUHU21623XXSP,2013-07-30 13:53:00,
2013-07-30 09:58:00,67.6,62.0,30.16,North,0,0.0,0.0,82,0.00,,,0.00,WUHU21623XXSP,2013-07-30 13:58:00,
2013-07-30 10:03:00,69.1,62.7,30.16,NNE,22,0.0,0.0,80,0.00,,,0.00,WUHU21623XXSP,2013-07-30 14:03:00,
2013-07-30 10:08:00,69.4,62.2,30.16,NNE,22,0.0,0.0,78,0.00,,,0.00,WUHU21623XXSP,2013-07-30 14:08:00,
2013-07-30 10:13:00,69.6,62.0,30.15,NNE,22,0.0,0.0,77,0.00,,,0.00,WUHU21623XXSP,2013-07-30 14:13:00,
2013-07-30 10:18:00,70.5,62.9,30.16,NNE,22,0.0,0.4,77,0.00,,,0.00,WUHU21623XXSP,2013-07-30 14:18:00,
2013-07-30 10:23:00,70.9,62.5,30.16,NNE,22,0.0,2.9,75,0.00,,,0.00,WUHU21623XXSP,2013-07-30 14:23:00,
2013-07-30 10:28:00,71.1,62.7,30.16,NNE,22,0.0,2.9,75,0.00,,,0.00,WUHU21623XXSP,2013-07-30 14:28:00,
2013-07-30 10:33:00,72.0,63.6,30.16,NNE,22,0.0,0.0,75,0.00,,,0.00,WUHU21623XXSP,2013-07-30 14:33:00,
2013-07-30 10:38:00,71.8,62.7,30.16,NNE,22,0.0,0.0,73,0.00,,,0.00,WUHU21623XXSP,2013-07-30 14:38:00,
2013-07-30 10:43:00,72.1,62.6,30.16,NNE,22,1.1,1.1,72,0.00,,,0.00,WUHU21623XXSP,2013-07-30 14:43:00,
2013-07-30 10:48:00,72.3,62.1,30.15,NNE,22,0.0,1.1,70,0.00,,,0.00,WUHU21623XXSP,2013-07-30 14:48:00,
2013-07-30 10:53:00,73.0,62.8,30.16,NNE,22,0.0,3.6,70,0.00,,,0.00,WUHU21623XXSP,2013-07-30 14:53:00,
2013-07-30 10:58:00,73.0,63.2,30.16,North,0,0.0,3.6,71,0.00,,,0.00,WUHU21623XXSP,2013-07-30 14:58:00,
2013-07-30 11:03:00,73.6,62.9,30.15,NNE,22,0.0,0.0,69,0.00,,,0.00,WUHU21623XXSP,2013-07-30 15:03:00,
2013-07-30 11:08:00,73.9,62.7,30.16,NNE,22,0.0,0.0,68,0.00,,,0.00,WUHU21623XXSP,2013-07-30 15:08:00,
2013-07-30 11:13:00,73.6,62.0,30.16,NNE,22,0.0,0.0,67,0.00,,,0.00,WUHU21623XXSP,2013-07-30 15:13:00,
2013-07-30 11:18:00,70.9,59.3,30.16,North,0,0.0,0.0,67,0.00,,,0.00,WUHU21623XXSP,2013-07-30 15:18:00,
2013-07-30 11:23:00,73.0,61.4,30.15,NNE,22,2.5,2.5,67,0.00,,,0.00,WUHU21623XXSP,2013-07-30 15:23:00,
2013-07-30 11:28:00,73.0,61.4,30.15,NNE,22,2.5,2.5,67,0.00,,,0.00,WUHU21623XXSP,2013-07-30 15:28:00,
2013-07-30 11:33:00,70.9,59.3,30.15,NNE,22,0.0,2.5,67,0.00,,,0.00,WUHU21623XXSP,2013-07-30 15:33:00,
2013-07-30 11:38:00,70.9,59.3,30.15,NNE,22,0.0,2.5,67,0.00,,,0.00,WUHU21623XXSP,2013-07-30 15:38:00,
2013-07-30 11:43:00,70.9,59.3,30.15,NNE,22,0.0,0.0,67,0.00,,,0.00,WUHU21623XXSP,2013-07-30 15:43:00,
2013-07-30 11:48:00,73.0,61.4,30.15,NNE,22,1.1,1.1,67,0.00,,,0.00,WUHU21623XXSP,2013-07-30 15:48:00,
2013-07-30 11:53:00,73.2,61.6,30.15,North,0,0.0,1.1,67,0.00,,,0.00,WUHU21623XXSP,2013-07-30 15:53:00,
2013-07-30 11:58:00,73.2,61.6,30.14,North,0,0.0,0.0,67,0.00,,,0.00,WUHU21623XXSP,2013-07-30 15:58:00,
2013-07-30 12:03:00,72.3,59.4,30.15,NNE,22,0.0,0.0,64,0.00,,,0.00,WUHU21623XXSP,2013-07-30 16:03:00,
2013-07-30 12:08:00,70.9,58.9,30.14,NNE,22,0.0,4.3,66,0.00,,,0.00,WUHU21623XXSP,2013-07-30 16:08:00,
2013-07-30 12:13:00,69.6,58.9,30.14,NNE,22,0.0,4.3,69,0.00,,,0.00,WUHU21623XXSP,2013-07-30 16:13:00,
2013-07-30 12:18:00,69.1,58.9,30.14,NNE,22,0.0,0.0,70,0.00,,,0.00,WUHU21623XXSP,2013-07-30 16:18:00,
2013-07-30 12:23:00,69.3,59.1,30.14,North,0,0.4,0.4,70,0.00,,,0.00,WUHU21623XXSP,2013-07-30 16:23:00,
2013-07-30 12:28:00,71.2,60.5,30.14,NNE,22,6.7,6.7,69,0.00,,,0.00,WUHU21623XXSP,2013-07-30 16:28:00,
2013-07-30 12:33:00,70.9,60.2,30.14,NNE,22,0.0,6.7,69,0.00,,,0.00,WUHU21623XXSP,2013-07-30 16:33:00,
2013-07-30 12:38:00,70.3,60.1,30.14,NNE,22,4.3,4.3,70,0.00,,,0.00,WUHU21623XXSP,2013-07-30 16:38:00,
2013-07-30 12:43:00,73.0,62.8,30.14,North,0,0.0,4.3,70,0.00,,,0.00,WUHU21623XXSP,2013-07-30 16:43:00,
2013-07-30 12:48:00,73.2,60.7,30.14,NNE,22,0.0,0.4,65,0.00,,,0.00,WUHU21623XXSP,2013-07-30 16:48:00,
2013-07-30 12:53:00,72.3,60.7,30.14,NW,315,0.0,0.7,67,0.00,,,0.00,WUHU21623XXSP,2013-07-30 16:53:00,
2013-07-30 12:58:00,73.0,60.1,30.14,NNE,22,7.4,7.4,64,0.00,,,0.00,WUHU21623XXSP,2013-07-30 16:58:00,
2013-07-30 13:03:00,71.2,58.8,30.13,NNE,22,0.0,7.4,65,0.00,,,0.00,WUHU21623XXSP,2013-07-30 17:03:00,
2013-07-30 13:08:00,70.5,59.0,30.13,NNE,22,0.0,0.0,67,0.00,,,0.00,WUHU21623XXSP,2013-07-30 17:08:00,
2013-07-30 13:13:00,70.0,58.9,30.14,NNE,22,8.3,8.3,68,0.00,,,0.00,WUHU21623XXSP,2013-07-30 17:13:00,
2013-07-30 13:18:00,70.7,60.0,30.13,NNE,22,0.0,8.3,69,0.00,,,0.00,WUHU21623XXSP,2013-07-30 17:18:00,
2013-07-30 13:23:00,71.8,60.6,30.14,North,0,3.6,3.6,68,0.00,,,0.00,WUHU21623XXSP,2013-07-30 17:23:00,
2013-07-30 13:28:00,72.1,60.6,30.13,North,0,8.1,8.1,67,0.00,,,0.00,WUHU21623XXSP,2013-07-30 17:28:00,
2013-07-30 13:33:00,72.9,61.7,30.12,North,0,1.6,8.1,68,0.00,,,0.00,WUHU21623XXSP,2013-07-30 17:33:00,
2013-07-30 13:38:00,73.2,60.7,30.13,North,0,3.1,5.1,65,0.00,,,0.00,WUHU21623XXSP,2013-07-30 17:38:00,
2013-07-30 13:43:00,73.2,60.7,30.13,North,0,3.1,5.1,65,0.00,,,0.00,WUHU21623XXSP,2013-07-30 17:43:00,
2013-07-30 13:48:00,74.1,62.0,30.13,North,0,0.0,3.1,66,0.00,,,0.00,WUHU21623XXSP,2013-07-30 17:48:00,
2013-07-30 13:53:00,74.5,61.5,30.13,North,0,0.0,3.8,64,0.00,,,0.00,WUHU21623XXSP,2013-07-30 17:53:00,
2013-07-30 13:58:00,74.8,61.8,30.12,WNW,292,0.0,3.8,64,0.00,,,0.00,WUHU21623XXSP,2013-07-30 17:58:00,
2013-07-30 14:03:00,75.0,61.6,30.13,NNW,337,0.0,0.2,63,0.00,,,0.00,WUHU21623XXSP,2013-07-30 18:03:00,
2013-07-30 14:08:00,75.4,61.9,30.13,NW,315,0.0,6.7,63,0.00,,,0.00,WUHU21623XXSP,2013-07-30 18:08:00,
2013-07-30 14:13:00,76.1,61.7,30.12,NNE,22,0.7,6.7,61,0.00,,,0.00,WUHU21623XXSP,2013-07-30 18:13:00,
2013-07-30 14:18:00,74.1,60.2,30.13,NNE,22,0.0,0.9,62,0.00,,,0.00,WUHU21623XXSP,2013-07-30 18:18:00,
2013-07-30 14:23:00,72.7,59.3,30.13,NNE,22,0.0,0.0,63,0.00,,,0.00,WUHU21623XXSP,2013-07-30 18:23:00,
2013-07-30 14:28:00,72.1,59.3,30.12,NNE,22,2.9,2.9,64,0.00,,,0.00,WUHU21623XXSP,2013-07-30 18:28:00,
2013-07-30 14:33:00,71.4,59.9,30.11,West,270,0.0,2.9,67,0.00,,,0.00,WUHU21623XXSP,2013-07-30 18:33:00,
2013-07-30 14:38:00,73.2,60.7,30.11,WSW,247,0.0,1.6,65,0.00,,,0.00,WUHU21623XXSP,2013-07-30 18:38:00,
2013-07-30 14:43:00,75.6,62.5,30.11,WSW,247,0.0,1.6,64,0.00,,,0.00,WUHU21623XXSP,2013-07-30 18:43:00,
2013-07-30 14:48:00,76.5,62.5,30.11,WSW,247,0.0,0.9,62,0.00,,,0.00,WUHU21623XXSP,2013-07-30 18:48:00,
2013-07-30 14:53:00,76.8,62.3,30.11,West,270,1.6,5.6,61,0.00,,,0.00,WUHU21623XXSP,2013-07-30 18:53:00,
2013-07-30 14:58:00,75.7,60.4,30.11,NNE,22,0.4,5.6,59,0.00,,,0.00,WUHU21623XXSP,2013-07-30 18:58:00,
2013-07-30 15:03:00,74.1,60.7,30.11,North,0,0.0,0.4,63,0.00,,,0.00,WUHU21623XXSP,2013-07-30 19:03:00,
2013-07-30 15:08:00,73.2,59.4,30.11,NNE,22,0.0,6.7,62,0.00,,,0.00,WUHU21623XXSP,2013-07-30 19:08:00,
2013-07-30 15:13:00,72.7,59.3,30.11,NNE,22,5.1,6.7,63,0.00,,,0.00,WUHU21623XXSP,2013-07-30 19:13:00,
2013-07-30 15:18:00,72.3,59.4,30.11,NNE,22,0.9,5.1,64,0.00,,,0.00,WUHU21623XXSP,2013-07-30 19:18:00,
2013-07-30 15:23:00,71.8,59.3,30.11,NNE,22,0.0,0.9,65,0.00,,,0.00,WUHU21623XXSP,2013-07-30 19:23:00,
2013-07-30 15:28:00,73.0,61.9,30.11,WSW,247,0.0,0.4,68,0.00,,,0.00,WUHU21623XXSP,2013-07-30 19:28:00,
2013-07-30 15:33:00,74.1,61.6,30.11,WNW,292,7.8,7.8,65,0.00,,,0.00,WUHU21623XXSP,2013-07-30 19:33:00,
2013-07-30 15:38:00,74.1,61.6,30.11,NNE,22,0.0,7.8,65,0.00,,,0.00,WUHU21623XXSP,2013-07-30 19:38:00,
2013-07-30 15:43:00,73.4,60.4,30.11,WSW,247,0.0,0.9,64,0.00,,,0.00,WUHU21623XXSP,2013-07-30 19:43:00,
2013-07-30 15:48:00,73.0,61.4,30.10,WSW,247,0.0,0.9,67,0.00,,,0.00,WUHU21623XXSP,2013-07-30 19:48:00,
2013-07-30 15:53:00,73.8,61.2,30.10,WSW,247,0.9,0.9,65,0.00,,,0.00,WUHU21623XXSP,2013-07-30 19:53:00,
2013-07-30 15:58:00,74.7,62.5,30.10,WSW,247,0.0,0.9,66,0.00,,,0.00,WUHU21623XXSP,2013-07-30 19:58:00,
2013-07-30 16:03:00,75.4,62.8,30.10,NNE,22,0.0,0.0,65,0.00,,,0.00,WUHU21623XXSP,2013-07-30 20:03:00,
2013-07-30 16:08:00,75.9,62.8,30.10,WSW,247,0.0,0.0,64,0.00,,,0.00,WUHU21623XXSP,2013-07-30 20:08:00,
2013-07-30 16:13:00,76.1,62.6,30.09,WSW,247,0.0,0.4,63,0.00,,,0.00,WUHU21623XXSP,2013-07-30 20:13:00,
2013-07-30 16:18:00,76.1,62.1,30.10,West,270,0.0,4.9,62,0.00,,,0.00,WUHU21623XXSP,2013-07-30 20:18:00,
2013-07-30 16:23:00,75.4,61.0,30.09,WSW,247,6.3,6.7,61,0.00,,,0.00,WUHU21623XXSP,2013-07-30 20:23:00,
2013-07-30 16:28:00,75.4,61.5,30.10,WSW,247,0.0,6.7,62,0.00,,,0.00,WUHU21623XXSP,2013-07-30 20:28:00,
2013-07-30 16:33:00,75.4,61.5,30.10,WSW,247,0.0,6.3,62,0.00,,,0.00,WUHU21623XXSP,2013-07-30 20:33:00,
2013-07-30 16:38:00,75.4,61.5,30.10,WNW,292,0.4,0.4,62,0.00,,,0.00,WUHU21623XXSP,2013-07-30 20:38:00,
2013-07-30 16:43:00,74.8,60.5,30.10,WSW,247,0.0,0.4,61,0.00,,,0.00,WUHU21623XXSP,2013-07-30 20:43:00,
2013-07-30 16:48:00,74.3,61.3,30.10,WSW,247,4.9,4.9,64,0.00,,,0.00,WUHU21623XXSP,2013-07-30 20:48:00,
2013-07-30 16:53:00,75.0,61.1,30.10,WSW,247,0.7,8.3,62,0.00,,,0.00,WUHU21623XXSP,2013-07-30 20:53:00,
2013-07-30 16:58:00,75.0,60.3,30.10,WSW,247,0.0,8.3,60,0.00,,,0.00,WUHU21623XXSP,2013-07-30 20:58:00,
2013-07-30 17:03:00,75.0,60.7,30.10,NNE,22,0.7,0.7,61,0.00,,,0.00,WUHU21623XXSP,2013-07-30 21:03:00,
2013-07-30 17:08:00,73.6,59.7,30.10,NNE,22,0.0,0.9,62,0.00,,,0.00,WUHU21623XXSP,2013-07-30 21:08:00,
2013-07-30 17:13:00,72.1,58.8,30.10,NNE,22,0.0,3.4,63,0.00,,,0.00,WUHU21623XXSP,2013-07-30 21:13:00,
2013-07-30 17:18:00,71.2,59.3,30.10,North,0,0.0,3.4,66,0.00,,,0.00,WUHU21623XXSP,2013-07-30 21:18:00,
2013-07-30 17:23:00,72.3,60.7,30.10,WSW,247,0.0,0.0,67,0.00,,,0.00,WUHU21623XXSP,2013-07-30 21:23:00,
2013-07-30 17:28:00,73.0,61.0,30.10,WSW,247,0.0,0.0,66,0.00,,,0.00,WUHU21623XXSP,2013-07-30 21:28:00,
2013-07-30 17:33:00,73.0,59.6,30.11,WSW,247,0.0,0.0,63,0.00,,,0.00,WUHU21623XXSP,2013-07-30 21:33:00,
2013-07-30 17:38:00,74.1,60.2,30.10,WSW,247,6.0,6.0,62,0.00,,,0.00,WUHU21623XXSP,2013-07-30 21:38:00,
2013-07-30 17:43:00,74.1,60.2,30.10,WSW,247,6.0,6.0,62,0.00,,,0.00,WUHU21623XXSP,2013-07-30 21:43:00,
2013-07-30 17:48:00,74.1,59.8,30.11,WNW,292,1.3,6.0,61,0.00,,,0.00,WUHU21623XXSP,2013-07-30 21:48:00,
2013-07-30 17:53:00,74.5,60.6,30.11,WSW,247,0.2,1.3,62,0.00,,,0.00,WUHU21623XXSP,2013-07-30 21:53:00,
2013-07-30 17:58:00,73.6,59.7,30.10,NNE,22,0.0,0.2,62,0.00,,,0.00,WUHU21623XXSP,2013-07-30 21:58:00,
2013-07-30 18:03:00,72.3,59.0,30.11,NNE,22,0.0,0.0,63,0.00,,,0.00,WUHU21623XXSP,2013-07-30 22:03:00,
2013-07-30 18:08:00,71.4,59.0,30.11,NNE,22,0.0,0.0,65,0.00,,,0.00,WUHU21623XXSP,2013-07-30 22:08:00,
2013-07-30 18:13:00,70.9,58.9,30.11,NNE,22,0.0,0.0,66,0.00,,,0.00,WUHU21623XXSP,2013-07-30 22:13:00,
2013-07-30 18:18:00,70.9,59.3,30.11,WNW,292,0.0,0.0,67,0.00,,,0.00,WUHU21623XXSP,2013-07-30 22:18:00,
2013-07-30 18:23:00,72.0,60.8,30.10,NW,315,0.0,0.0,68,0.00,,,0.00,WUHU21623XXSP,2013-07-30 22:23:00,
2013-07-30 18:28:00,72.0,60.8,30.10,NW,315,0.0,0.0,68,0.00,,,0.00,WUHU21623XXSP,2013-07-30 22:28:00,
2013-07-30 18:33:00,72.0,59.1,30.10,North,0,0.0,0.0,64,0.00,,,0.00,WUHU21623XXSP,2013-07-30 22:33:00,
2013-07-30 18:38:00,70.3,57.6,30.10,NNE,22,0.0,0.0,64,0.00,,,0.00,WUHU21623XXSP,2013-07-30 22:38:00,
2013-07-30 18:43:00,70.2,57.8,30.11,WNW,292,0.0,0.0,65,0.00,,,0.00,WUHU21623XXSP,2013-07-30 22:43:00,
2013-07-30 18:44:00,70.2,57.8,30.11,WNW,292,0.0,0.0,65,0.00,,,0.00,WUHU21623XXSP,2013-07-30 22:44:00,
2013-07-30 18:49:00,70.3,58.0,30.11,North,0,0.0,0.0,65,0.00,,,0.00,WUHU21623XXSP,2013-07-30 22:49:00,
2013-07-30 18:54:00,70.2,57.8,30.11,NNE,22,0.0,0.0,65,0.00,,,0.00,WUHU21623XXSP,2013-07-30 22:54:00,
2013-07-30 18:59:00,69.6,57.7,30.11,NNE,22,0.0,0.0,66,0.00,,,0.00,WUHU21623XXSP,2013-07-30 22:59:00,
2013-07-30 19:04:00,68.7,56.9,30.11,WNW,292,0.0,0.0,66,0.00,,,0.00,WUHU21623XXSP,2013-07-30 23:04:00,
2013-07-30 19:09:00,68.9,57.5,30.11,WNW,292,0.0,0.0,67,0.00,,,0.00,WUHU21623XXSP,2013-07-30 23:09:00,
2013-07-30 19:14:00,69.1,57.6,30.11,NNE,22,0.0,0.0,67,0.00,,,0.00,WUHU21623XXSP,2013-07-30 23:14:00,
2013-07-30 19:19:00,68.5,57.5,30.11,NNE,22,0.0,0.0,68,0.00,,,0.00,WUHU21623XXSP,2013-07-30 23:19:00,
2013-07-30 19:24:00,68.2,57.2,30.11,NNE,22,0.0,0.0,68,0.00,,,0.00,WUHU21623XXSP,2013-07-30 23:24:00,
2013-07-30 19:29:00,67.6,57.1,30.11,NNE,22,0.0,0.0,69,0.00,,,0.00,WUHU21623XXSP,2013-07-30 23:29:00,
2013-07-30 19:34:00,66.9,56.4,30.11,NNE,22,0.0,0.0,69,0.00,,,0.00,WUHU21623XXSP,2013-07-30 23:34:00,
2013-07-30 19:39:00,66.6,56.5,30.11,NNE,22,0.0,0.0,70,0.00,,,0.00,WUHU21623XXSP,2013-07-30 23:39:00,
2013-07-30 19:44:00,66.0,56.3,30.11,NNE,22,0.0,0.0,71,0.00,,,0.00,WUHU21623XXSP,2013-07-30 23:44:00,
2013-07-30 19:49:00,66.0,56.3,30.11,NNE,22,0.0,0.0,71,0.00,,,0.00,WUHU21623XXSP,2013-07-30 23:49:00,
2013-07-30 19:54:00,65.8,56.2,30.11,NNE,22,0.0,0.0,71,0.00,,,0.00,WUHU21623XXSP,2013-07-30 23:54:00,
2013-07-30 19:59:00,65.5,55.8,30.11,NNE,22,0.0,0.0,71,0.00,,,0.00,WUHU21623XXSP,2013-07-30 23:59:00,
2013-07-30 20:04:00,65.1,55.9,30.11,NNE,22,0.0,0.0,72,0.00,,,0.00,WUHU21623XXSP,2013-07-31 00:04:00,
2013-07-30 20:09:00,64.9,56.1,30.11,NNE,22,0.0,0.0,73,0.00,,,0.00,WUHU21623XXSP,2013-07-31 00:09:00,
2013-07-30 20:14:00,64.6,55.7,30.11,NNE,22,0.0,0.0,73,0.00,,,0.00,WUHU21623XXSP,2013-07-31 00:14:00,
2013-07-30 20:19:00,64.0,55.6,30.11,NNE,22,0.0,0.0,74,0.00,,,0.00,WUHU21623XXSP,2013-07-31 00:19:00,
2013-07-30 20:24:00,63.7,55.2,30.11,NNE,22,0.0,0.0,74,0.00,,,0.00,WUHU21623XXSP,2013-07-31 00:24:00,
2013-07-30 20:29:00,63.3,55.2,30.11,NNE,22,0.0,0.0,75,0.00,,,0.00,WUHU21623XXSP,2013-07-31 00:29:00,
2013-07-30 20:34:00,62.8,54.7,30.11,NNE,22,0.0,0.0,75,0.00,,,0.00,WUHU21623XXSP,2013-07-31 00:34:00,
2013-07-30 20:39:00,62.4,54.7,30.11,NNE,22,0.0,0.0,76,0.00,,,0.00,WUHU21623XXSP,2013-07-31 00:39:00,
2013-07-30 20:44:00,61.9,54.2,30.11,NNE,22,0.0,0.0,76,0.00,,,0.00,WUHU21623XXSP,2013-07-31 00:44:00,
2013-07-30 20:49:00,61.2,53.6,30.11,NNE,22,0.0,0.0,76,0.00,,,0.00,WUHU21623XXSP,2013-07-31 00:49:00,
2013-07-30 20:54:00,60.3,53.4,30.11,NNE,22,0.0,0.0,78,0.00,,,0.00,WUHU21623XXSP,2013-07-31 00:54:00,
2013-07-30 20:59:00,59.5,52.7,30.11,NNE,22,0.0,0.0,78,0.00,,,0.00,WUHU21623XXSP,2013-07-31 00:59:00,
2013-07-30 21:04:00,58.8,52.7,30.11,NNE,22,0.0,0.0,80,0.00,,,0.00,WUHU21623XXSP,2013-07-31 01:04:00,
2013-07-30 21:09:00,58.5,52.3,30.11,NNE,22,0.0,0.0,80,0.00,,,0.00,WUHU21623XXSP,2013-07-31 01:09:00,
2013-07-30 21:14:00,58.3,52.5,30.12,NNE,22,0.0,0.0,81,0.00,,,0.00,WUHU21623XXSP,2013-07-31 01:14:00,
2013-07-30 21:19:00,57.9,52.1,30.11,NNE,22,0.0,0.0,81,0.00,,,0.00,WUHU21623XXSP,2013-07-31 01:19:00,
2013-07-30 21:24:00,57.9,52.4,30.11,NNE,22,0.0,0.0,82,0.00,,,0.00,WUHU21623XXSP,2013-07-31 01:24:00,
2013-07-30 21:29:00,57.7,52.3,30.11,NNE,22,0.0,0.0,82,0.00,,,0.00,WUHU21623XXSP,2013-07-31 01:29:00,
2013-07-30 21:34:00,57.2,51.7,30.11,NNE,22,0.0,0.0,82,0.00,,,0.00,WUHU21623XXSP,2013-07-31 01:34:00,
2013-07-30 21:39:00,57.0,51.5,30.12,NNE,22,0.0,0.0,82,0.00,,,0.00,WUHU21623XXSP,2013-07-31 01:39:00,
2013-07-30 21:44:00,56.8,51.7,30.12,NNE,22,0.0,0.0,83,0.00,,,0.00,WUHU21623XXSP,2013-07-31 01:44:00,
2013-07-30 21:49:00,57.0,52.2,30.12,NNE,22,0.0,0.0,84,0.00,,,0.00,WUHU21623XXSP,2013-07-31 01:49:00,
2013-07-30 21:54:00,57.0,52.2,30.12,NNE,22,0.0,0.0,84,0.00,,,0.00,WUHU21623XXSP,2013-07-31 01:54:00,
2013-07-30 21:59:00,57.0,52.2,30.12,NNE,22,0.0,0.0,84,0.00,,,0.00,WUHU21623XXSP,2013-07-31 01:59:00,
2013-07-30 22:04:00,56.8,52.0,30.12,NNE,22,0.0,0.0,84,0.00,,,0.00,WUHU21623XXSP,2013-07-31 02:04:00,
2013-07-30 22:09:00,56.8,52.0,30.12,NNE,22,0.0,0.0,84,0.00,,,0.00,WUHU21623XXSP,2013-07-31 02:09:00,
2013-07-30 22:14:00,56.8,52.3,30.13,NNE,22,0.0,0.0,85,0.00,,,0.00,WUHU21623XXSP,2013-07-31 02:14:00,
2013-07-30 22:19:00,56.7,52.2,30.12,NNE,22,0.0,0.0,85,0.00,,,0.00,WUHU21623XXSP,2013-07-31 02:19:00,
2013-07-30 22:24:00,56.8,52.3,30.12,NNE,22,0.0,0.0,85,0.00,,,0.00,WUHU21623XXSP,2013-07-31 02:24:00,
2013-07-30 22:29:00,56.5,52.0,30.13,NNE,22,0.0,0.0,85,0.00,,,0.00,WUHU21623XXSP,2013-07-31 02:29:00,
2013-07-30 22:34:00,56.1,51.6,30.13,NNE,22,0.0,0.0,85,0.00,,,0.00,WUHU21623XXSP,2013-07-31 02:34:00,
2013-07-30 22:39:00,55.9,51.4,30.13,NNE,22,0.0,0.0,85,0.00,,,0.00,WUHU21623XXSP,2013-07-31 02:39:00,
2013-07-30 22:44:00,55.9,51.4,30.13,NNE,22,0.0,0.0,85,0.00,,,0.00,WUHU21623XXSP,2013-07-31 02:44:00,
2013-07-30 22:49:00,55.9,51.4,30.13,NNE,22,0.0,0.0,85,0.00,,,0.00,WUHU21623XXSP,2013-07-31 02:49:00,
2013-07-30 22:54:00,55.8,51.6,30.13,NNE,22,0.0,0.0,86,0.00,,,0.00,WUHU21623XXSP,2013-07-31 02:54:00,
2013-07-30 22:59:00,55.8,51.6,30.13,NNE,22,0.0,0.0,86,0.00,,,0.00,WUHU21623XXSP,2013-07-31 02:59:00,
2013-07-30 23:01:00,54.1,50.3,30.12,NNE,22,0.0,0.0,87,0.00,,,0.00,WUHU21623XXSP,2013-07-31 03:01:00,
2013-07-30 23:03:00,54.1,50.3,30.13,NNE,22,0.0,0.0,87,0.00,,,0.00,WUHU21623XXSP,2013-07-31 03:03:00,
2013-07-30 23:04:00,55.2,51.0,30.13,NNE,22,0.0,0.0,86,0.00,,,0.00,WUHU21623XXSP,2013-07-31 03:04:00,
2013-07-30 23:05:00,54.0,50.1,30.13,NNE,22,0.0,0.0,87,0.00,,,0.00,WUHU21623XXSP,2013-07-31 03:05:00,
2013-07-30 23:07:00,53.8,50.0,30.13,NNE,22,0.0,0.0,87,0.00,,,0.00,WUHU21623XXSP,2013-07-31 03:07:00,
2013-07-30 23:09:00,55.0,50.9,30.13,NNE,22,0.0,0.0,86,0.00,,,0.00,WUHU21623XXSP,2013-07-31 03:09:00,
2013-07-30 23:14:00,55.0,50.9,30.13,NNE,22,0.0,0.0,86,0.00,,,0.00,WUHU21623XXSP,2013-07-31 03:14:00,
2013-07-30 23:19:00,55.0,50.9,30.13,NNE,22,0.0,0.0,86,0.00,,,0.00,WUHU21623XXSP,2013-07-31 03:19:00,
2013-07-30 23:24:00,54.9,50.7,30.13,NNE,22,0.0,0.0,86,0.00,,,0.00,WUHU21623XXSP,2013-07-31 03:24:00,
2013-07-30 23:29:00,54.7,50.5,30.13,NNE,22,0.0,0.0,86,0.00,,,0.00,WUHU21623XXSP,2013-07-31 03:29:00,
2013-07-30 23:34:00,54.7,50.5,30.13,NNE,22,0.0,0.0,86,0.00,,,0.00,WUHU21623XXSP,2013-07-31 03:34:00,
2013-07-30 23:39:00,54.5,50.4,30.13,NNE,22,0.0,0.0,86,0.00,,,0.00,WUHU21623XXSP,2013-07-31 03:39:00,
2013-07-30 23:44:00,54.3,50.2,30.13,NNE,22,0.0,0.0,86,0.00,,,0.00,WUHU21623XXSP,2013-07-31 03:44:00,
2013-07-30 23:49:00,54.3,50.2,30.13,NNE,22,0.0,0.0,86,0.00,,,0.00,WUHU21623XXSP,2013-07-31 03:49:00,
2013-07-30 23:54:00,54.3,50.2,30.13,NNE,22,0.0,0.0,86,0.00,,,0.00,WUHU21623XXSP,2013-07-31 03:54:00,
2013-07-30 23:59:00,54.1,50.3,30.13,NNE,22,0.0,0.0,87,0.00,,,0.00,WUHU21623XXSP,2013-07-31 03:59:00,